sensor_id;sensor_type;location;lat;lon;timestamp;P1;durP1;ratioP1;P2;durP2;ratioP2
4909;SDS011;2470;49.868;8.660;2022-12-07T00:01:20;7.93;;;5.43;;
4909;SDS011;2470;49.868;8.660;2022-12-07T00:03:51;5.83;;;4.40;;
4909;SDS011;2470;49.868;8.660;2022-12-07T00:06:18;11.97;;;6.53;;
4909;SDS011;2470;49.868;8.660;2022-12-07T00:08:44;10.73;;;6.17;;
4909;SDS011;2470;49.868;8.660;2022-12-07T00:11:14;13.20;;;5.63;;
4909;SDS011;2470;49.868;8.660;2022-12-07T00:13:42;8.20;;;5.13;;
4909;SDS011;2470;49.868;8.660;2022-12-07T00:16:09;11.70;;;5.90;;
4909;SDS011;2470;49.868;8.660;2022-12-07T00:18:37;8.40;;;4.90;;
4909;SDS011;2470;49.868;8.660;2022-12-07T00:21:04;11.40;;;5.77;;
4909;SDS011;2470;49.868;8.660;2022-12-07T00:23:40;8.80;;;6.10;;
4909;SDS011;2470;49.868;8.660;2022-12-07T00:26:08;15.30;;;6.00;;
4909;SDS011;2470;49.868;8.660;2022-12-07T00:28:40;9.70;;;5.37;;
4909;SDS011;2470;49.868;8.660;2022-12-07T00:31:07;12.77;;;6.47;;
4909;SDS011;2470;49.868;8.660;2022-12-07T00:33:35;11.37;;;5.90;;
4909;SDS011;2470;49.868;8.660;2022-12-07T00:36:03;8.27;;;4.87;;
4909;SDS011;2470;49.868;8.660;2022-12-07T00:38:32;18.20;;;5.60;;
4909;SDS011;2470;49.868;8.660;2022-12-07T00:40:58;8.37;;;5.03;;
4909;SDS011;2470;49.868;8.660;2022-12-07T00:43:29;7.07;;;4.80;;
4909;SDS011;2470;49.868;8.660;2022-12-07T00:45:55;8.77;;;4.90;;
4909;SDS011;2470;49.868;8.660;2022-12-07T00:48:21;8.23;;;5.27;;
4909;SDS011;2470;49.868;8.660;2022-12-07T00:50:48;9.30;;;4.97;;
4909;SDS011;2470;49.868;8.660;2022-12-07T00:53:14;12.13;;;5.20;;
4909;SDS011;2470;49.868;8.660;2022-12-07T00:55:40;8.87;;;5.23;;
4909;SDS011;2470;49.868;8.660;2022-12-07T00:58:06;11.07;;;6.50;;
4909;SDS011;2470;49.868;8.660;2022-12-07T01:00:31;12.73;;;6.07;;
4909;SDS011;2470;49.868;8.660;2022-12-07T01:02:58;9.60;;;5.40;;
4909;SDS011;2470;49.868;8.660;2022-12-07T01:05:24;10.73;;;5.83;;
4909;SDS011;2470;49.868;8.660;2022-12-07T01:07:49;9.73;;;5.90;;
4909;SDS011;2470;49.868;8.660;2022-12-07T01:10:16;8.00;;;4.50;;
4909;SDS011;2470;49.868;8.660;2022-12-07T01:12:42;11.10;;;5.20;;
4909;SDS011;2470;49.868;8.660;2022-12-07T01:15:07;10.33;;;5.60;;
4909;SDS011;2470;49.868;8.660;2022-12-07T01:17:33;7.50;;;5.27;;
4909;SDS011;2470;49.868;8.660;2022-12-07T01:19:59;9.30;;;5.17;;
4909;SDS011;2470;49.868;8.660;2022-12-07T01:22:24;8.40;;;5.17;;
4909;SDS011;2470;49.868;8.660;2022-12-07T01:24:50;15.93;;;6.60;;
4909;SDS011;2470;49.868;8.660;2022-12-07T01:27:15;13.97;;;6.17;;
4909;SDS011;2470;49.868;8.660;2022-12-07T01:29:41;9.17;;;5.27;;
4909;SDS011;2470;49.868;8.660;2022-12-07T01:32:07;8.33;;;4.90;;
4909;SDS011;2470;49.868;8.660;2022-12-07T01:34:33;7.33;;;4.50;;
4909;SDS011;2470;49.868;8.660;2022-12-07T01:36:58;10.47;;;6.07;;
4909;SDS011;2470;49.868;8.660;2022-12-07T01:39:24;6.13;;;4.47;;
4909;SDS011;2470;49.868;8.660;2022-12-07T01:41:49;9.87;;;5.60;;
4909;SDS011;2470;49.868;8.660;2022-12-07T01:44:30;8.53;;;5.00;;
4909;SDS011;2470;49.868;8.660;2022-12-07T01:46:58;7.87;;;4.90;;
4909;SDS011;2470;49.868;8.660;2022-12-07T01:49:28;11.00;;;5.93;;
4909;SDS011;2470;49.868;8.660;2022-12-07T01:52:00;9.43;;;5.20;;
4909;SDS011;2470;49.868;8.660;2022-12-07T01:54:32;9.97;;;5.10;;
4909;SDS011;2470;49.868;8.660;2022-12-07T01:56:59;5.63;;;4.23;;
4909;SDS011;2470;49.868;8.660;2022-12-07T01:59:24;9.83;;;5.90;;
4909;SDS011;2470;49.868;8.660;2022-12-07T02:01:51;9.33;;;4.40;;
4909;SDS011;2470;49.868;8.660;2022-12-07T02:04:18;7.37;;;4.87;;
4909;SDS011;2470;49.868;8.660;2022-12-07T02:06:44;7.53;;;5.07;;
4909;SDS011;2470;49.868;8.660;2022-12-07T02:09:10;10.83;;;4.93;;
4909;SDS011;2470;49.868;8.660;2022-12-07T02:11:37;10.27;;;5.63;;
4909;SDS011;2470;49.868;8.660;2022-12-07T02:14:02;10.13;;;5.60;;
4909;SDS011;2470;49.868;8.660;2022-12-07T02:16:37;11.20;;;5.77;;
4909;SDS011;2470;49.868;8.660;2022-12-07T02:19:23;9.67;;;5.50;;
4909;SDS011;2470;49.868;8.660;2022-12-07T02:22:31;11.40;;;4.90;;
4909;SDS011;2470;49.868;8.660;2022-12-07T02:28:03;12.47;;;5.77;;
4909;SDS011;2470;49.868;8.660;2022-12-07T02:30:52;10.03;;;5.10;;
4909;SDS011;2470;49.868;8.660;2022-12-07T02:33:26;11.57;;;7.53;;
4909;SDS011;2470;49.868;8.660;2022-12-07T02:36:06;8.50;;;5.00;;
4909;SDS011;2470;49.868;8.660;2022-12-07T02:38:38;12.70;;;6.40;;
4909;SDS011;2470;49.868;8.660;2022-12-07T02:41:44;8.73;;;5.07;;
4909;SDS011;2470;49.868;8.660;2022-12-07T02:44:14;9.23;;;5.40;;
4909;SDS011;2470;49.868;8.660;2022-12-07T02:46:54;10.40;;;5.90;;
4909;SDS011;2470;49.868;8.660;2022-12-07T02:49:26;10.13;;;5.03;;
4909;SDS011;2470;49.868;8.660;2022-12-07T02:51:53;8.43;;;4.60;;
4909;SDS011;2470;49.868;8.660;2022-12-07T02:54:19;10.23;;;5.73;;
4909;SDS011;2470;49.868;8.660;2022-12-07T02:56:47;10.47;;;5.07;;
4909;SDS011;2470;49.868;8.660;2022-12-07T03:07:34;7.83;;;5.37;;
4909;SDS011;2470;49.868;8.660;2022-12-07T03:10:14;10.20;;;5.30;;
4909;SDS011;2470;49.868;8.660;2022-12-07T03:13:13;12.97;;;5.20;;
4909;SDS011;2470;49.868;8.660;2022-12-07T03:15:46;11.73;;;5.50;;
4909;SDS011;2470;49.868;8.660;2022-12-07T03:18:21;18.20;;;5.27;;
4909;SDS011;2470;49.868;8.660;2022-12-07T03:20:50;11.03;;;5.00;;
4909;SDS011;2470;49.868;8.660;2022-12-07T03:23:18;8.87;;;5.87;;
4909;SDS011;2470;49.868;8.660;2022-12-07T03:25:47;8.73;;;5.20;;
4909;SDS011;2470;49.868;8.660;2022-12-07T03:28:17;9.53;;;4.90;;
4909;SDS011;2470;49.868;8.660;2022-12-07T03:30:49;7.17;;;4.80;;
4909;SDS011;2470;49.868;8.660;2022-12-07T03:33:20;7.87;;;5.00;;
4909;SDS011;2470;49.868;8.660;2022-12-07T03:35:57;5.20;;;3.80;;
4909;SDS011;2470;49.868;8.660;2022-12-07T03:38:31;12.20;;;5.63;;
4909;SDS011;2470;49.868;8.660;2022-12-07T03:41:04;8.60;;;4.87;;
4909;SDS011;2470;49.868;8.660;2022-12-07T03:43:36;7.57;;;4.00;;
4909;SDS011;2470;49.868;8.660;2022-12-07T03:48:46;5.70;;;4.03;;
4909;SDS011;2470;49.868;8.660;2022-12-07T03:56:58;9.27;;;6.07;;
4909;SDS011;2470;49.868;8.660;2022-12-07T03:59:26;7.47;;;4.70;;
4909;SDS011;2470;49.868;8.660;2022-12-07T04:01:53;7.10;;;3.87;;
4909;SDS011;2470;49.868;8.660;2022-12-07T04:04:21;9.80;;;5.53;;
4909;SDS011;2470;49.868;8.660;2022-12-07T04:06:47;7.20;;;5.03;;
4909;SDS011;2470;49.868;8.660;2022-12-07T04:09:13;8.67;;;4.87;;
4909;SDS011;2470;49.868;8.660;2022-12-07T04:11:39;9.00;;;3.73;;
4909;SDS011;2470;49.868;8.660;2022-12-07T04:14:05;7.93;;;4.30;;
4909;SDS011;2470;49.868;8.660;2022-12-07T04:16:53;15.07;;;4.90;;
4909;SDS011;2470;49.868;8.660;2022-12-07T04:19:26;13.23;;;6.10;;
4909;SDS011;2470;49.868;8.660;2022-12-07T04:21:54;12.53;;;4.53;;
4909;SDS011;2470;49.868;8.660;2022-12-07T04:24:21;9.30;;;4.40;;
4909;SDS011;2470;49.868;8.660;2022-12-07T04:26:46;9.20;;;4.83;;
4909;SDS011;2470;49.868;8.660;2022-12-07T04:29:12;10.90;;;6.27;;
4909;SDS011;2470;49.868;8.660;2022-12-07T04:31:38;9.63;;;5.33;;
4909;SDS011;2470;49.868;8.660;2022-12-07T04:34:04;9.93;;;5.40;;
4909;SDS011;2470;49.868;8.660;2022-12-07T04:36:30;8.73;;;4.57;;
4909;SDS011;2470;49.868;8.660;2022-12-07T04:38:57;8.13;;;4.97;;
4909;SDS011;2470;49.868;8.660;2022-12-07T04:41:22;9.20;;;4.70;;
4909;SDS011;2470;49.868;8.660;2022-12-07T04:44:02;10.07;;;5.07;;
4909;SDS011;2470;49.868;8.660;2022-12-07T04:46:29;11.70;;;5.70;;
4909;SDS011;2470;49.868;8.660;2022-12-07T04:48:56;11.43;;;5.43;;
4909;SDS011;2470;49.868;8.660;2022-12-07T04:51:23;11.43;;;4.90;;
4909;SDS011;2470;49.868;8.660;2022-12-07T04:53:52;11.70;;;4.50;;
4909;SDS011;2470;49.868;8.660;2022-12-07T04:56:18;9.87;;;4.70;;
4909;SDS011;2470;49.868;8.660;2022-12-07T04:58:45;8.43;;;5.37;;
4909;SDS011;2470;49.868;8.660;2022-12-07T05:01:11;10.13;;;4.50;;
4909;SDS011;2470;49.868;8.660;2022-12-07T05:03:37;11.67;;;6.50;;
4909;SDS011;2470;49.868;8.660;2022-12-07T05:06:03;8.17;;;4.90;;
4909;SDS011;2470;49.868;8.660;2022-12-07T05:08:29;5.67;;;3.90;;
4909;SDS011;2470;49.868;8.660;2022-12-07T05:10:55;10.30;;;4.97;;
4909;SDS011;2470;49.868;8.660;2022-12-07T05:13:20;6.47;;;3.90;;
4909;SDS011;2470;49.868;8.660;2022-12-07T05:15:47;6.07;;;3.80;;
4909;SDS011;2470;49.868;8.660;2022-12-07T05:18:13;8.10;;;4.90;;
4909;SDS011;2470;49.868;8.660;2022-12-07T05:20:39;8.70;;;4.57;;
4909;SDS011;2470;49.868;8.660;2022-12-07T05:23:05;7.30;;;4.83;;
4909;SDS011;2470;49.868;8.660;2022-12-07T05:25:31;12.80;;;6.40;;
4909;SDS011;2470;49.868;8.660;2022-12-07T05:27:56;10.90;;;6.30;;
4909;SDS011;2470;49.868;8.660;2022-12-07T05:30:22;10.10;;;5.30;;
4909;SDS011;2470;49.868;8.660;2022-12-07T05:32:49;8.20;;;4.53;;
4909;SDS011;2470;49.868;8.660;2022-12-07T05:35:15;9.23;;;5.80;;
4909;SDS011;2470;49.868;8.660;2022-12-07T05:37:41;8.90;;;4.93;;
4909;SDS011;2470;49.868;8.660;2022-12-07T05:40:06;13.57;;;5.73;;
4909;SDS011;2470;49.868;8.660;2022-12-07T05:42:32;5.80;;;4.23;;
4909;SDS011;2470;49.868;8.660;2022-12-07T05:44:58;19.47;;;5.90;;
4909;SDS011;2470;49.868;8.660;2022-12-07T05:47:23;10.90;;;4.77;;
4909;SDS011;2470;49.868;8.660;2022-12-07T05:49:49;6.10;;;4.30;;
4909;SDS011;2470;49.868;8.660;2022-12-07T05:52:14;10.83;;;5.30;;
4909;SDS011;2470;49.868;8.660;2022-12-07T05:54:40;11.20;;;5.40;;
4909;SDS011;2470;49.868;8.660;2022-12-07T05:57:06;10.30;;;4.63;;
4909;SDS011;2470;49.868;8.660;2022-12-07T05:59:31;8.80;;;5.30;;
4909;SDS011;2470;49.868;8.660;2022-12-07T06:02:01;9.40;;;4.33;;
4909;SDS011;2470;49.868;8.660;2022-12-07T06:04:29;11.30;;;5.03;;
4909;SDS011;2470;49.868;8.660;2022-12-07T06:06:57;8.93;;;4.83;;
4909;SDS011;2470;49.868;8.660;2022-12-07T06:09:23;6.80;;;4.80;;
4909;SDS011;2470;49.868;8.660;2022-12-07T06:11:50;10.20;;;5.07;;
4909;SDS011;2470;49.868;8.660;2022-12-07T06:14:34;18.70;;;4.97;;
4909;SDS011;2470;49.868;8.660;2022-12-07T06:17:00;8.63;;;4.70;;
4909;SDS011;2470;49.868;8.660;2022-12-07T06:19:25;11.57;;;4.57;;
4909;SDS011;2470;49.868;8.660;2022-12-07T06:21:51;12.10;;;4.57;;
4909;SDS011;2470;49.868;8.660;2022-12-07T06:24:17;17.77;;;5.10;;
4909;SDS011;2470;49.868;8.660;2022-12-07T06:26:43;10.10;;;5.70;;
4909;SDS011;2470;49.868;8.660;2022-12-07T06:29:10;8.33;;;4.23;;
4909;SDS011;2470;49.868;8.660;2022-12-07T06:31:36;11.60;;;5.90;;
4909;SDS011;2470;49.868;8.660;2022-12-07T06:34:06;11.90;;;6.10;;
4909;SDS011;2470;49.868;8.660;2022-12-07T06:36:34;6.40;;;4.80;;
4909;SDS011;2470;49.868;8.660;2022-12-07T06:39:00;11.50;;;6.00;;
4909;SDS011;2470;49.868;8.660;2022-12-07T06:41:26;12.77;;;6.33;;
4909;SDS011;2470;49.868;8.660;2022-12-07T06:43:51;9.53;;;4.77;;
4909;SDS011;2470;49.868;8.660;2022-12-07T06:46:17;13.30;;;5.87;;
4909;SDS011;2470;49.868;8.660;2022-12-07T06:48:43;13.90;;;5.70;;
4909;SDS011;2470;49.868;8.660;2022-12-07T06:51:09;13.83;;;6.50;;
4909;SDS011;2470;49.868;8.660;2022-12-07T06:53:35;13.47;;;5.33;;
4909;SDS011;2470;49.868;8.660;2022-12-07T06:56:01;10.30;;;5.43;;
4909;SDS011;2470;49.868;8.660;2022-12-07T06:58:27;13.53;;;5.03;;
4909;SDS011;2470;49.868;8.660;2022-12-07T07:00:53;10.87;;;4.83;;
4909;SDS011;2470;49.868;8.660;2022-12-07T07:03:18;8.07;;;4.90;;
4909;SDS011;2470;49.868;8.660;2022-12-07T07:05:44;13.33;;;5.60;;
4909;SDS011;2470;49.868;8.660;2022-12-07T07:08:10;9.60;;;5.00;;
4909;SDS011;2470;49.868;8.660;2022-12-07T07:10:36;11.10;;;5.90;;
4909;SDS011;2470;49.868;8.660;2022-12-07T07:13:02;8.90;;;4.30;;
4909;SDS011;2470;49.868;8.660;2022-12-07T07:15:28;8.03;;;5.00;;
4909;SDS011;2470;49.868;8.660;2022-12-07T07:17:54;10.53;;;5.17;;
4909;SDS011;2470;49.868;8.660;2022-12-07T07:20:19;9.80;;;4.80;;
4909;SDS011;2470;49.868;8.660;2022-12-07T07:22:45;7.60;;;5.17;;
4909;SDS011;2470;49.868;8.660;2022-12-07T07:25:10;8.00;;;4.10;;
4909;SDS011;2470;49.868;8.660;2022-12-07T07:27:36;10.23;;;5.70;;
4909;SDS011;2470;49.868;8.660;2022-12-07T07:30:02;13.43;;;6.30;;
4909;SDS011;2470;49.868;8.660;2022-12-07T07:32:28;8.17;;;5.10;;
4909;SDS011;2470;49.868;8.660;2022-12-07T07:34:54;10.40;;;5.50;;
4909;SDS011;2470;49.868;8.660;2022-12-07T07:37:19;11.43;;;6.90;;
4909;SDS011;2470;49.868;8.660;2022-12-07T07:39:45;10.57;;;5.77;;
4909;SDS011;2470;49.868;8.660;2022-12-07T07:42:10;8.97;;;5.10;;
4909;SDS011;2470;49.868;8.660;2022-12-07T07:44:36;9.83;;;4.60;;
4909;SDS011;2470;49.868;8.660;2022-12-07T07:47:02;10.70;;;5.17;;
4909;SDS011;2470;49.868;8.660;2022-12-07T07:49:27;9.10;;;5.20;;
4909;SDS011;2470;49.868;8.660;2022-12-07T07:51:53;11.63;;;4.73;;
4909;SDS011;2470;49.868;8.660;2022-12-07T07:54:18;13.10;;;5.03;;
4909;SDS011;2470;49.868;8.660;2022-12-07T07:56:44;11.50;;;5.73;;
4909;SDS011;2470;49.868;8.660;2022-12-07T07:59:09;10.20;;;5.13;;
4909;SDS011;2470;49.868;8.660;2022-12-07T08:01:35;17.43;;;5.40;;
4909;SDS011;2470;49.868;8.660;2022-12-07T08:04:00;9.00;;;4.70;;
4909;SDS011;2470;49.868;8.660;2022-12-07T08:06:26;11.20;;;5.00;;
4909;SDS011;2470;49.868;8.660;2022-12-07T08:08:52;12.20;;;5.60;;
4909;SDS011;2470;49.868;8.660;2022-12-07T08:11:17;8.87;;;5.20;;
4909;SDS011;2470;49.868;8.660;2022-12-07T08:13:46;8.40;;;5.60;;
4909;SDS011;2470;49.868;8.660;2022-12-07T08:16:12;9.70;;;5.20;;
4909;SDS011;2470;49.868;8.660;2022-12-07T08:18:39;8.20;;;4.13;;
4909;SDS011;2470;49.868;8.660;2022-12-07T08:21:06;14.13;;;6.63;;
4909;SDS011;2470;49.868;8.660;2022-12-07T08:23:34;11.43;;;5.33;;
4909;SDS011;2470;49.868;8.660;2022-12-07T08:26:00;6.80;;;4.60;;
4909;SDS011;2470;49.868;8.660;2022-12-07T08:28:27;9.20;;;4.80;;
4909;SDS011;2470;49.868;8.660;2022-12-07T08:30:58;12.07;;;6.40;;
4909;SDS011;2470;49.868;8.660;2022-12-07T08:33:24;11.23;;;5.50;;
4909;SDS011;2470;49.868;8.660;2022-12-07T08:35:50;9.90;;;5.90;;
4909;SDS011;2470;49.868;8.660;2022-12-07T08:38:16;9.83;;;5.77;;
4909;SDS011;2470;49.868;8.660;2022-12-07T08:40:42;15.80;;;6.20;;
4909;SDS011;2470;49.868;8.660;2022-12-07T08:43:07;14.83;;;5.70;;
4909;SDS011;2470;49.868;8.660;2022-12-07T08:45:33;16.83;;;6.67;;
4909;SDS011;2470;49.868;8.660;2022-12-07T08:48:04;15.10;;;6.00;;
4909;SDS011;2470;49.868;8.660;2022-12-07T08:50:35;9.30;;;5.37;;
4909;SDS011;2470;49.868;8.660;2022-12-07T08:53:02;18.30;;;5.97;;
4909;SDS011;2470;49.868;8.660;2022-12-07T08:55:29;9.53;;;5.40;;
4909;SDS011;2470;49.868;8.660;2022-12-07T08:57:57;11.17;;;6.03;;
4909;SDS011;2470;49.868;8.660;2022-12-07T09:00:24;11.23;;;7.10;;
4909;SDS011;2470;49.868;8.660;2022-12-07T09:02:50;9.37;;;5.97;;
4909;SDS011;2470;49.868;8.660;2022-12-07T09:05:16;9.13;;;6.00;;
4909;SDS011;2470;49.868;8.660;2022-12-07T09:07:43;13.10;;;5.87;;
4909;SDS011;2470;49.868;8.660;2022-12-07T09:10:10;7.20;;;4.20;;
4909;SDS011;2470;49.868;8.660;2022-12-07T09:12:36;10.50;;;6.30;;
4909;SDS011;2470;49.868;8.660;2022-12-07T09:15:01;10.00;;;5.10;;
4909;SDS011;2470;49.868;8.660;2022-12-07T09:17:27;10.40;;;5.60;;
4909;SDS011;2470;49.868;8.660;2022-12-07T09:19:57;9.90;;;5.67;;
4909;SDS011;2470;49.868;8.660;2022-12-07T09:22:22;13.57;;;6.40;;
4909;SDS011;2470;49.868;8.660;2022-12-07T09:24:48;12.87;;;7.03;;
4909;SDS011;2470;49.868;8.660;2022-12-07T09:27:13;14.33;;;5.87;;
4909;SDS011;2470;49.868;8.660;2022-12-07T09:29:39;8.53;;;5.13;;
4909;SDS011;2470;49.868;8.660;2022-12-07T09:32:04;12.17;;;6.10;;
4909;SDS011;2470;49.868;8.660;2022-12-07T09:34:30;7.67;;;5.57;;
4909;SDS011;2470;49.868;8.660;2022-12-07T09:36:57;11.17;;;5.50;;
4909;SDS011;2470;49.868;8.660;2022-12-07T09:39:22;9.03;;;5.80;;
4909;SDS011;2470;49.868;8.660;2022-12-07T09:41:48;13.87;;;5.90;;
4909;SDS011;2470;49.868;8.660;2022-12-07T09:44:16;18.23;;;6.83;;
4909;SDS011;2470;49.868;8.660;2022-12-07T09:46:46;8.97;;;5.43;;
4909;SDS011;2470;49.868;8.660;2022-12-07T09:49:14;9.57;;;6.03;;
4909;SDS011;2470;49.868;8.660;2022-12-07T09:51:42;10.73;;;5.70;;
4909;SDS011;2470;49.868;8.660;2022-12-07T09:54:09;8.03;;;5.77;;
4909;SDS011;2470;49.868;8.660;2022-12-07T09:56:38;8.87;;;5.40;;
4909;SDS011;2470;49.868;8.660;2022-12-07T09:59:04;14.33;;;6.17;;
4909;SDS011;2470;49.868;8.660;2022-12-07T10:01:30;13.53;;;5.60;;
4909;SDS011;2470;49.868;8.660;2022-12-07T10:04:09;12.00;;;5.90;;
4909;SDS011;2470;49.868;8.660;2022-12-07T10:06:43;15.73;;;6.33;;
4909;SDS011;2470;49.868;8.660;2022-12-07T10:09:09;11.00;;;5.00;;
4909;SDS011;2470;49.868;8.660;2022-12-07T10:12:24;23.87;;;5.10;;
4909;SDS011;2470;49.868;8.660;2022-12-07T10:14:27;12.27;;;6.37;;
4909;SDS011;2470;49.868;8.660;2022-12-07T10:16:54;10.27;;;5.87;;
4909;SDS011;2470;49.868;8.660;2022-12-07T10:19:25;10.60;;;5.93;;
4909;SDS011;2470;49.868;8.660;2022-12-07T10:24:30;15.00;;;7.47;;
4909;SDS011;2470;49.868;8.660;2022-12-07T10:26:55;8.80;;;5.10;;
4909;SDS011;2470;49.868;8.660;2022-12-07T10:29:23;14.07;;;6.60;;
4909;SDS011;2470;49.868;8.660;2022-12-07T10:32:01;13.40;;;6.00;;
4909;SDS011;2470;49.868;8.660;2022-12-07T10:34:27;10.07;;;5.60;;
4909;SDS011;2470;49.868;8.660;2022-12-07T10:37:16;10.30;;;5.20;;
4909;SDS011;2470;49.868;8.660;2022-12-07T10:39:52;13.10;;;4.97;;
4909;SDS011;2470;49.868;8.660;2022-12-07T10:42:23;9.90;;;5.50;;
4909;SDS011;2470;49.868;8.660;2022-12-07T10:45:13;12.73;;;5.63;;
4909;SDS011;2470;49.868;8.660;2022-12-07T10:47:45;8.23;;;5.73;;
4909;SDS011;2470;49.868;8.660;2022-12-07T10:50:35;10.87;;;6.40;;
4909;SDS011;2470;49.868;8.660;2022-12-07T10:56:01;14.70;;;7.63;;
4909;SDS011;2470;49.868;8.660;2022-12-07T11:04:15;10.90;;;5.83;;
4909;SDS011;2470;49.868;8.660;2022-12-07T11:07:00;11.10;;;6.13;;
4909;SDS011;2470;49.868;8.660;2022-12-07T11:10:01;8.80;;;5.13;;
4909;SDS011;2470;49.868;8.660;2022-12-07T11:13:10;11.47;;;5.80;;
4909;SDS011;2470;49.868;8.660;2022-12-07T11:18:12;9.73;;;4.33;;
4909;SDS011;2470;49.868;8.660;2022-12-07T11:20:53;9.20;;;4.10;;
4909;SDS011;2470;49.868;8.660;2022-12-07T11:23:49;6.37;;;4.43;;
4909;SDS011;2470;49.868;8.660;2022-12-07T11:26:50;8.83;;;4.30;;
4909;SDS011;2470;49.868;8.660;2022-12-07T11:32:40;12.60;;;4.40;;
4909;SDS011;2470;49.868;8.660;2022-12-07T11:38:01;7.43;;;4.03;;
4909;SDS011;2470;49.868;8.660;2022-12-07T11:40:37;10.83;;;3.27;;
4909;SDS011;2470;49.868;8.660;2022-12-07T11:43:09;6.47;;;3.00;;
4909;SDS011;2470;49.868;8.660;2022-12-07T11:45:42;3.80;;;2.50;;
4909;SDS011;2470;49.868;8.660;2022-12-07T11:48:15;5.00;;;3.10;;
4909;SDS011;2470;49.868;8.660;2022-12-07T11:50:48;4.13;;;2.60;;
4909;SDS011;2470;49.868;8.660;2022-12-07T11:53:29;15.30;;;2.97;;
4909;SDS011;2470;49.868;8.660;2022-12-07T11:59:09;6.10;;;3.10;;
4909;SDS011;2470;49.868;8.660;2022-12-07T12:06:38;4.00;;;2.27;;
4909;SDS011;2470;49.868;8.660;2022-12-07T12:09:16;11.90;;;2.77;;
4909;SDS011;2470;49.868;8.660;2022-12-07T12:17:22;3.73;;;2.30;;
4909;SDS011;2470;49.868;8.660;2022-12-07T12:23:15;6.23;;;2.67;;
4909;SDS011;2470;49.868;8.660;2022-12-07T12:25:49;5.43;;;2.77;;
4909;SDS011;2470;49.868;8.660;2022-12-07T12:31:14;2.70;;;2.40;;
4909;SDS011;2470;49.868;8.660;2022-12-07T12:33:49;6.60;;;2.43;;
4909;SDS011;2470;49.868;8.660;2022-12-07T12:50:13;5.27;;;2.70;;
4909;SDS011;2470;49.868;8.660;2022-12-07T12:52:47;8.23;;;4.10;;
4909;SDS011;2470;49.868;8.660;2022-12-07T12:55:18;7.70;;;4.40;;
4909;SDS011;2470;49.868;8.660;2022-12-07T12:57:46;17.77;;;4.87;;
4909;SDS011;2470;49.868;8.660;2022-12-07T13:00:32;8.50;;;4.03;;
4909;SDS011;2470;49.868;8.660;2022-12-07T13:02:59;7.17;;;4.17;;
4909;SDS011;2470;49.868;8.660;2022-12-07T13:05:25;10.77;;;4.23;;
4909;SDS011;2470;49.868;8.660;2022-12-07T13:08:15;12.73;;;5.10;;
4909;SDS011;2470;49.868;8.660;2022-12-07T13:10:47;21.17;;;3.83;;
4909;SDS011;2470;49.868;8.660;2022-12-07T13:21:01;4.63;;;3.23;;
4909;SDS011;2470;49.868;8.660;2022-12-07T13:23:29;2.70;;;2.40;;
4909;SDS011;2470;49.868;8.660;2022-12-07T13:26:20;7.37;;;2.47;;
4909;SDS011;2470;49.868;8.660;2022-12-07T13:29:16;2.17;;;1.63;;
4909;SDS011;2470;49.868;8.660;2022-12-07T13:37:01;9.93;;;1.90;;
4909;SDS011;2470;49.868;8.660;2022-12-07T13:39:35;2.30;;;2.10;;
4909;SDS011;2470;49.868;8.660;2022-12-07T13:42:15;5.93;;;2.73;;
4909;SDS011;2470;49.868;8.660;2022-12-07T13:44:52;2.20;;;2.00;;
4909;SDS011;2470;49.868;8.660;2022-12-07T13:47:30;2.37;;;2.00;;
4909;SDS011;2470;49.868;8.660;2022-12-07T13:50:01;3.60;;;2.30;;
4909;SDS011;2470;49.868;8.660;2022-12-07T13:52:27;6.73;;;2.60;;
4909;SDS011;2470;49.868;8.660;2022-12-07T13:57:24;2.33;;;2.10;;
4909;SDS011;2470;49.868;8.660;2022-12-07T13:59:50;8.33;;;3.00;;
4909;SDS011;2470;49.868;8.660;2022-12-07T14:02:18;3.53;;;2.13;;
4909;SDS011;2470;49.868;8.660;2022-12-07T14:04:51;2.40;;;1.77;;
4909;SDS011;2470;49.868;8.660;2022-12-07T14:07:30;3.13;;;1.90;;
4909;SDS011;2470;49.868;8.660;2022-12-07T14:10:05;3.97;;;2.13;;
4909;SDS011;2470;49.868;8.660;2022-12-07T14:12:31;3.33;;;1.77;;
4909;SDS011;2470;49.868;8.660;2022-12-07T14:15:00;2.30;;;1.77;;
4909;SDS011;2470;49.868;8.660;2022-12-07T14:17:27;3.80;;;2.07;;
4909;SDS011;2470;49.868;8.660;2022-12-07T14:20:00;10.20;;;3.23;;
4909;SDS011;2470;49.868;8.660;2022-12-07T14:22:34;7.33;;;2.57;;
4909;SDS011;2470;49.868;8.660;2022-12-07T14:27:36;4.90;;;2.00;;
4909;SDS011;2470;49.868;8.660;2022-12-07T14:30:02;2.43;;;2.23;;
4909;SDS011;2470;49.868;8.660;2022-12-07T14:32:29;3.83;;;2.43;;
4909;SDS011;2470;49.868;8.660;2022-12-07T14:37:35;7.10;;;2.27;;
4909;SDS011;2470;49.868;8.660;2022-12-07T14:40:02;6.20;;;1.97;;
4909;SDS011;2470;49.868;8.660;2022-12-07T14:42:28;4.70;;;2.60;;
4909;SDS011;2470;49.868;8.660;2022-12-07T14:44:55;5.47;;;2.17;;
4909;SDS011;2470;49.868;8.660;2022-12-07T14:47:22;7.70;;;2.23;;
4909;SDS011;2470;49.868;8.660;2022-12-07T14:49:49;11.27;;;1.93;;
4909;SDS011;2470;49.868;8.660;2022-12-07T14:52:19;2.63;;;2.20;;
4909;SDS011;2470;49.868;8.660;2022-12-07T14:54:47;3.80;;;2.17;;
4909;SDS011;2470;49.868;8.660;2022-12-07T14:57:13;8.77;;;3.00;;
4909;SDS011;2470;49.868;8.660;2022-12-07T14:59:39;3.47;;;1.90;;
4909;SDS011;2470;49.868;8.660;2022-12-07T15:02:05;6.50;;;2.30;;
4909;SDS011;2470;49.868;8.660;2022-12-07T15:04:31;8.67;;;2.33;;
4909;SDS011;2470;49.868;8.660;2022-12-07T15:07:00;6.63;;;2.73;;
4909;SDS011;2470;49.868;8.660;2022-12-07T15:09:28;3.27;;;2.80;;
4909;SDS011;2470;49.868;8.660;2022-12-07T15:11:54;6.63;;;1.83;;
4909;SDS011;2470;49.868;8.660;2022-12-07T15:14:19;4.00;;;2.20;;
4909;SDS011;2470;49.868;8.660;2022-12-07T15:16:45;1.83;;;1.70;;
4909;SDS011;2470;49.868;8.660;2022-12-07T15:19:14;1.50;;;1.33;;
4909;SDS011;2470;49.868;8.660;2022-12-07T15:21:42;3.00;;;2.43;;
4909;SDS011;2470;49.868;8.660;2022-12-07T15:24:08;1.70;;;1.37;;
4909;SDS011;2470;49.868;8.660;2022-12-07T15:26:35;3.30;;;2.10;;
4909;SDS011;2470;49.868;8.660;2022-12-07T15:29:01;4.20;;;1.33;;
4909;SDS011;2470;49.868;8.660;2022-12-07T15:31:27;1.20;;;1.10;;
4909;SDS011;2470;49.868;8.660;2022-12-07T15:33:52;2.70;;;1.30;;
4909;SDS011;2470;49.868;8.660;2022-12-07T15:36:19;5.13;;;1.77;;
4909;SDS011;2470;49.868;8.660;2022-12-07T15:38:47;2.77;;;2.27;;
4909;SDS011;2470;49.868;8.660;2022-12-07T15:41:13;2.90;;;1.77;;
4909;SDS011;2470;49.868;8.660;2022-12-07T15:43:39;1.40;;;1.30;;
4909;SDS011;2470;49.868;8.660;2022-12-07T15:46:23;3.33;;;1.80;;
4909;SDS011;2470;49.868;8.660;2022-12-07T15:48:53;2.60;;;1.80;;
4909;SDS011;2470;49.868;8.660;2022-12-07T15:51:19;2.17;;;1.87;;
4909;SDS011;2470;49.868;8.660;2022-12-07T15:53:44;1.77;;;1.60;;
4909;SDS011;2470;49.868;8.660;2022-12-07T15:56:10;3.17;;;2.53;;
4909;SDS011;2470;49.868;8.660;2022-12-07T15:58:35;2.37;;;1.80;;
4909;SDS011;2470;49.868;8.660;2022-12-07T16:01:08;4.03;;;2.87;;
4909;SDS011;2470;49.868;8.660;2022-12-07T16:03:35;2.20;;;1.83;;
4909;SDS011;2470;49.868;8.660;2022-12-07T16:06:01;1.90;;;1.63;;
4909;SDS011;2470;49.868;8.660;2022-12-07T16:08:26;3.57;;;2.10;;
4909;SDS011;2470;49.868;8.660;2022-12-07T16:10:52;2.17;;;1.97;;
4909;SDS011;2470;49.868;8.660;2022-12-07T16:13:17;7.03;;;2.80;;
4909;SDS011;2470;49.868;8.660;2022-12-07T16:15:44;3.87;;;2.10;;
4909;SDS011;2470;49.868;8.660;2022-12-07T16:18:09;3.67;;;2.17;;
4909;SDS011;2470;49.868;8.660;2022-12-07T16:20:35;3.03;;;1.77;;
4909;SDS011;2470;49.868;8.660;2022-12-07T16:23:00;13.17;;;2.40;;
4909;SDS011;2470;49.868;8.660;2022-12-07T16:25:27;3.90;;;2.87;;
4909;SDS011;2470;49.868;8.660;2022-12-07T16:27:52;3.80;;;2.23;;
4909;SDS011;2470;49.868;8.660;2022-12-07T16:30:18;2.97;;;2.17;;
4909;SDS011;2470;49.868;8.660;2022-12-07T16:32:43;1.60;;;1.50;;
4909;SDS011;2470;49.868;8.660;2022-12-07T16:35:09;5.63;;;1.80;;
4909;SDS011;2470;49.868;8.660;2022-12-07T16:37:36;2.07;;;1.87;;
4909;SDS011;2470;49.868;8.660;2022-12-07T16:40:01;3.77;;;1.40;;
4909;SDS011;2470;49.868;8.660;2022-12-07T16:42:30;3.77;;;1.50;;
4909;SDS011;2470;49.868;8.660;2022-12-07T16:44:57;5.53;;;2.67;;
4909;SDS011;2470;49.868;8.660;2022-12-07T16:47:22;4.77;;;3.67;;
4909;SDS011;2470;49.868;8.660;2022-12-07T16:49:48;8.17;;;3.50;;
4909;SDS011;2470;49.868;8.660;2022-12-07T16:52:14;5.37;;;3.10;;
4909;SDS011;2470;49.868;8.660;2022-12-07T16:54:39;2.67;;;2.27;;
4909;SDS011;2470;49.868;8.660;2022-12-07T16:57:05;6.93;;;3.57;;